Time;durP1;ratioP1;P1;durP2;ratioP2;P2;SDS_P1;SDS_P2;PMS_P1;PMS_P2;Temp;Humidity;BMP_temperature;BMP_pressure;BME280_temperature;BME280_humidity;BME280_pressure;Samples;Min_cycle;Max_cycle;Signal;HPM_P1;HPM_P2
2023/06/24 00:00:56;;;;;;;9.85;6.38;;;16.90;99.90;;;;;;5091507;28;20142;-53
2023/06/24 00:03:22;;;;;;;9.13;6.07;;;16.90;99.90;;;;;;5091805;28;20082;-55
2023/06/24 00:05:49;;;;;;;10.88;5.88;;;16.80;99.90;;;;;;5091874;28;20032;-55
2023/06/24 00:08:19;;;;;;;8.77;5.25;;;16.80;99.90;;;;;;5091609;28;20404;-53
2023/06/24 00:10:46;;;;;;;10.82;5.50;;;16.80;99.90;;;;;;5091563;28;20027;-54
2023/06/24 00:13:12;;;;;;;8.52;5.43;;;16.70;99.90;;;;;;5091723;28;20070;-55
2023/06/24 00:15:42;;;;;;;8.38;4.80;;;16.70;99.90;;;;;;5091357;28;20056;-50
2023/06/24 00:18:11;;;;;;;9.65;4.90;;;16.60;99.90;;;;;;5091474;28;20039;-54
2023/06/24 00:20:37;;;;;;;8.93;5.05;;;16.60;99.90;;;;;;5091454;28;20035;-55
2023/06/24 00:23:03;;;;;;;7.68;4.63;;;16.60;99.90;;;;;;5091630;28;20019;-55
2023/06/24 00:25:31;;;;;;;10.05;5.35;;;16.60;99.90;;;;;;5091286;28;20032;-52
2023/06/24 00:27:58;;;;;;;7.40;5.18;;;16.70;99.90;;;;;;5091090;28;20122;-54
2023/06/24 00:30:23;;;;;;;9.98;5.38;;;16.80;99.90;;;;;;5073282;28;20043;-49
2023/06/24 00:32:49;;;;;;;10.25;5.60;;;16.70;99.90;;;;;;5091436;28;20028;-52
2023/06/24 00:35:15;;;;;;;9.43;5.20;;;16.70;99.90;;;;;;5073204;28;20074;-52
2023/06/24 00:37:42;;;;;;;10.52;5.68;;;16.70;99.90;;;;;;5072958;28;20031;-53
2023/06/24 00:40:14;;;;;;;10.10;5.10;;;16.60;99.90;;;;;;5073047;28;20036;-54
2023/06/24 00:42:41;;;;;;;7.75;5.05;;;16.50;99.90;;;;;;5091039;28;20039;-54
2023/06/24 00:45:09;;;;;;;8.25;5.65;;;16.50;99.90;;;;;;5072846;28;20036;-55
2023/06/24 00:47:35;;;;;;;8.85;4.53;;;16.50;99.90;;;;;;5091380;28;20036;-54
2023/06/24 00:50:01;;;;;;;6.43;4.18;;;16.40;99.90;;;;;;5072720;28;20039;-54
2023/06/24 00:52:27;;;;;;;7.97;4.43;;;16.40;99.90;;;;;;5091079;28;20396;-53
2023/06/24 00:54:55;;;;;;;8.52;4.85;;;16.40;99.90;;;;;;5072837;28;20028;-54
2023/06/24 00:57:25;;;;;;;10.13;4.72;;;16.40;99.90;;;;;;5072761;28;20396;-53
2023/06/24 00:59:53;;;;;;;7.50;4.45;;;16.30;99.90;;;;;;5072663;28;20114;-52
2023/06/24 01:02:22;;;;;;;8.13;4.75;;;16.40;99.90;;;;;;5090652;28;20087;-55
2023/06/24 01:04:51;;;;;;;7.88;4.03;;;16.40;99.90;;;;;;5090817;28;20111;-55
2023/06/24 01:07:17;;;;;;;7.53;4.57;;;16.50;99.90;;;;;;5072699;28;20127;-54
2023/06/24 01:09:43;;;;;;;6.03;4.20;;;16.50;99.90;;;;;;5072624;28;20451;-52
2023/06/24 01:12:09;;;;;;;7.55;4.30;;;16.60;99.90;;;;;;5072511;28;20038;-52
2023/06/24 01:14:36;;;;;;;8.45;4.40;;;16.60;99.90;;;;;;5072551;28;20032;-51
2023/06/24 01:17:23;;;;;;;8.98;4.18;;;16.50;99.90;;;;;;5072492;28;20028;-52
2023/06/24 01:19:58;;;;;;;9.05;4.70;;;16.50;99.90;;;;;;5090706;28;20221;-55
2023/06/24 01:22:33;;;;;;;8.40;4.30;;;16.50;99.90;;;;;;5090619;28;20028;-54
2023/06/24 01:25:07;;;;;;;9.68;5.05;;;16.60;99.90;;;;;;5072519;28;20439;-55
2023/06/24 01:27:52;;;;;;;8.50;4.95;;;16.50;99.90;;;;;;5072610;28;20059;-53
2023/06/24 01:30:42;;;;;;;8.63;4.75;;;16.40;99.90;;;;;;5072536;28;20028;-55
2023/06/24 01:33:14;;;;;;;9.35;4.82;;;16.40;99.90;;;;;;5053054;28;20709;-53
2023/06/24 01:35:41;;;;;;;9.15;4.80;;;16.30;99.90;;;;;;5072569;28;20035;-53
2023/06/24 01:38:14;;;;;;;8.95;4.30;;;16.30;99.90;;;;;;5072380;28;20032;-54
2023/06/24 01:40:47;;;;;;;7.20;4.60;;;16.30;99.90;;;;;;5072464;28;20097;-54
2023/06/24 01:43:15;;;;;;;8.50;5.07;;;16.30;99.90;;;;;;5090607;28;20032;-54
2023/06/24 01:45:44;;;;;;;9.43;4.85;;;16.20;99.90;;;;;;5090618;28;20078;-55
2023/06/24 01:48:22;;;;;;;8.77;4.78;;;16.20;99.90;;;;;;5090783;28;20534;-52
2023/06/24 01:50:58;;;;;;;8.05;4.40;;;16.10;99.90;;;;;;5072352;28;20114;-52
2023/06/24 01:53:27;;;;;;;7.95;4.35;;;16.10;99.90;;;;;;5090744;28;20472;-52
2023/06/24 01:55:54;;;;;;;8.27;4.82;;;16.00;99.90;;;;;;5090677;28;20032;-54
2023/06/24 01:58:22;;;;;;;7.72;4.57;;;16.00;99.90;;;;;;5072368;28;20028;-54
2023/06/24 02:00:48;;;;;;;6.95;4.53;;;15.90;99.90;;;;;;5072216;28;20194;-55
2023/06/24 02:03:15;;;;;;;11.40;5.03;;;15.90;99.90;;;;;;5073603;28;20429;-55
2023/06/24 02:05:42;;;;;;;7.88;4.40;;;15.90;99.90;;;;;;5059408;28;20035;-55
2023/06/24 02:08:09;;;;;;;8.13;4.35;;;15.80;99.90;;;;;;5075833;28;20089;-52
2023/06/24 02:10:38;;;;;;;10.23;5.28;;;15.80;99.90;;;;;;5075723;28;20122;-55
2023/06/24 02:13:04;;;;;;;8.00;4.32;;;15.80;99.90;;;;;;5075772;28;20032;-54
2023/06/24 02:15:30;;;;;;;9.07;5.10;;;15.70;99.90;;;;;;5075912;28;20047;-54
2023/06/24 02:17:57;;;;;;;6.68;4.75;;;15.70;99.90;;;;;;5093794;28;20519;-52
2023/06/24 02:20:26;;;;;;;8.05;4.80;;;15.70;99.90;;;;;;5075580;28;20055;-53
2023/06/24 02:22:54;;;;;;;7.82;4.60;;;15.70;99.90;;;;;;5075732;28;20035;-50
2023/06/24 02:25:22;;;;;;;7.57;4.43;;;15.70;99.90;;;;;;5075489;28;20028;-50
2023/06/24 02:27:48;;;;;;;10.82;4.63;;;15.70;99.90;;;;;;5075299;28;20101;-54
2023/06/24 02:30:14;;;;;;;7.70;4.40;;;15.80;99.90;;;;;;5075311;28;20028;-54
2023/06/24 02:32:40;;;;;;;8.00;4.57;;;15.90;99.90;;;;;;5093642;28;20028;-54
2023/06/24 02:35:07;;;;;;;9.63;4.40;;;15.90;99.90;;;;;;5093659;28;20117;-52
2023/06/24 02:37:33;;;;;;;8.80;4.25;;;15.90;99.90;;;;;;5075778;28;20121;-54
2023/06/24 02:40:00;;;;;;;9.18;4.40;;;16.00;99.90;;;;;;5093242;28;20036;-53
2023/06/24 02:42:26;;;;;;;9.68;5.25;;;16.00;99.90;;;;;;5075188;28;20035;-53
2023/06/24 02:44:52;;;;;;;7.43;4.32;;;16.00;99.90;;;;;;5075311;28;20408;-53
2023/06/24 02:47:19;;;;;;;8.70;4.60;;;16.00;99.90;;;;;;5075258;28;20073;-53
2023/06/24 02:49:46;;;;;;;8.32;4.55;;;16.00;99.90;;;;;;5093070;28;20016;-54
2023/06/24 02:52:12;;;;;;;8.63;4.75;;;16.00;99.90;;;;;;5074829;28;20086;-53
2023/06/24 02:54:39;;;;;;;8.40;4.03;;;16.00;99.90;;;;;;5075130;28;20032;-50
2023/06/24 02:57:26;;;;;;;7.50;3.95;;;16.10;99.90;;;;;;5074963;28;20031;-51
2023/06/24 03:00:16;;;;;;;7.85;4.25;;;16.00;99.90;;;;;;5045309;28;20043;-52
2023/06/24 03:03:02;;;;;;;6.38;4.10;;;16.00;99.90;;;;;;5093013;28;20047;-53
2023/06/24 03:05:30;;;;;;;7.33;4.37;;;16.00;99.90;;;;;;5074886;28;20446;-53
2023/06/24 03:07:56;;;;;;;7.95;4.70;;;16.00;99.90;;;;;;5074629;28;20981;-52
2023/06/24 03:10:24;;;;;;;8.73;4.38;;;16.00;99.90;;;;;;5074539;28;20119;-53
2023/06/24 03:12:50;;;;;;;7.63;3.90;;;16.00;99.90;;;;;;5074554;28;20029;-53
2023/06/24 03:15:16;;;;;;;7.25;4.45;;;16.00;99.90;;;;;;5074444;28;20098;-54
2023/06/24 03:17:42;;;;;;;9.15;4.47;;;16.10;99.90;;;;;;5074522;28;20063;-49
2023/06/24 03:20:08;;;;;;;7.50;4.57;;;16.20;99.90;;;;;;5074412;28;20028;-53
2023/06/24 03:22:34;;;;;;;6.90;3.90;;;16.20;99.90;;;;;;5074428;28;20499;-54
2023/06/24 03:25:01;;;;;;;8.10;4.47;;;16.30;99.90;;;;;;5074425;28;20028;-50
2023/06/24 03:27:27;;;;;;;6.85;4.30;;;16.50;99.90;;;;;;5074329;28;20515;-49
2023/06/24 03:29:53;;;;;;;7.97;4.53;;;16.60;99.90;;;;;;5074382;28;20075;-49
2023/06/24 03:32:19;;;;;;;8.20;4.57;;;16.60;99.90;;;;;;5074753;28;20028;-48
2023/06/24 03:34:46;;;;;;;8.80;4.50;;;16.70;99.90;;;;;;5074584;28;20392;-54
2023/06/24 03:37:12;;;;;;;8.35;4.35;;;16.70;99.90;;;;;;5074582;28;20020;-51
2023/06/24 03:39:40;;;;;;;8.55;4.65;;;16.70;99.90;;;;;;5074529;28;20077;-49
2023/06/24 03:42:06;;;;;;;9.95;4.70;;;16.70;99.90;;;;;;5075319;28;20031;-52
2023/06/24 03:44:32;;;;;;;8.27;5.00;;;16.80;99.90;;;;;;5075986;28;20055;-49
2023/06/24 03:46:57;;;;;;;8.15;4.40;;;16.80;99.90;;;;;;5059055;28;20058;-50
2023/06/24 03:49:24;;;;;;;8.43;4.13;;;16.80;99.90;;;;;;5075489;28;20028;-51
2023/06/24 03:51:49;;;;;;;9.52;4.35;;;16.80;99.90;;;;;;5073668;28;20020;-51
2023/06/24 03:54:15;;;;;;;9.52;4.25;;;16.90;99.90;;;;;;5092028;28;20028;-53
2023/06/24 03:56:41;;;;;;;8.25;4.32;;;16.90;99.90;;;;;;5073698;28;20557;-50
2023/06/24 03:59:08;;;;;;;7.75;4.45;;;16.90;99.90;;;;;;5073917;28;20046;-52
2023/06/24 04:01:33;;;;;;;11.00;4.57;;;16.90;99.90;;;;;;5073734;28;20036;-53
2023/06/24 04:03:59;;;;;;;8.35;4.82;;;16.90;99.90;;;;;;5091779;28;20035;-49
2023/06/24 04:06:24;;;;;;;8.30;4.63;;;16.90;99.90;;;;;;5073620;28;20499;-52
2023/06/24 04:08:52;;;;;;;7.43;4.55;;;16.90;99.90;;;;;;5073549;28;20036;-51
2023/06/24 04:11:18;;;;;;;8.45;4.70;;;16.90;99.90;;;;;;5091479;28;20419;-52
2023/06/24 04:13:45;;;;;;;7.95;4.60;;;16.90;99.90;;;;;;5073568;28;20500;-53
2023/06/24 04:16:11;;;;;;;9.88;4.47;;;16.90;99.90;;;;;;5073484;28;20515;-55
2023/06/24 04:18:39;;;;;;;6.82;4.55;;;16.90;99.90;;;;;;5073466;28;20036;-55
2023/06/24 04:21:09;;;;;;;7.90;4.32;;;16.90;99.90;;;;;;5073351;28;20028;-55
2023/06/24 04:23:34;;;;;;;10.13;5.47;;;16.90;99.90;;;;;;5073180;28;20040;-52
2023/06/24 04:26:00;;;;;;;9.23;4.85;;;16.90;99.90;;;;;;5072697;28;20077;-55
2023/06/24 04:28:26;;;;;;;7.45;4.32;;;17.00;99.90;;;;;;5073030;28;20043;-55
2023/06/24 04:30:52;;;;;;;7.97;4.80;;;17.00;99.90;;;;;;5073135;28;20480;-55
2023/06/24 04:33:18;;;;;;;8.38;4.53;;;17.10;99.90;;;;;;5073341;28;20030;-54
2023/06/24 04:35:44;;;;;;;9.80;4.85;;;17.10;99.90;;;;;;5073132;28;20028;-51
2023/06/24 04:38:10;;;;;;;8.13;4.75;;;17.10;99.90;;;;;;5072778;28;20028;-55
2023/06/24 04:40:36;;;;;;;10.57;5.03;;;17.10;99.90;;;;;;5072874;28;20114;-52
2023/06/24 04:43:02;;;;;;;8.43;5.30;;;17.00;99.90;;;;;;5091357;28;20040;-53
2023/06/24 04:45:28;;;;;;;11.13;4.75;;;17.10;99.90;;;;;;5091170;28;20077;-55
2023/06/24 04:47:54;;;;;;;8.30;4.50;;;17.10;99.90;;;;;;5091061;28;20128;-53
2023/06/24 04:50:19;;;;;;;9.98;5.13;;;17.10;99.90;;;;;;5091129;28;20035;-54
2023/06/24 04:52:45;;;;;;;9.20;4.95;;;17.10;99.90;;;;;;5090998;28;20027;-54
2023/06/24 04:55:10;;;;;;;8.88;5.60;;;17.20;99.90;;;;;;5091391;28;20047;-54
2023/06/24 04:57:36;;;;;;;9.35;5.00;;;17.20;99.90;;;;;;5091263;28;20408;-53
2023/06/24 05:00:02;;;;;;;9.20;5.10;;;17.20;99.90;;;;;;5090955;28;20035;-51
2023/06/24 05:02:28;;;;;;;9.85;5.15;;;17.30;99.90;;;;;;5091024;28;20466;-53
2023/06/24 05:04:54;;;;;;;11.65;5.40;;;17.40;99.90;;;;;;5091043;28;20115;-55
2023/06/24 05:07:20;;;;;;;12.25;5.93;;;17.40;99.90;;;;;;5090975;28;20020;-55
2023/06/24 05:09:47;;;;;;;10.23;5.20;;;17.40;99.90;;;;;;5090786;28;20102;-55
2023/06/24 05:12:13;;;;;;;10.65;5.60;;;17.40;99.90;;;;;;5090685;28;20032;-52
2023/06/24 05:14:38;;;;;;;10.82;5.63;;;17.50;99.90;;;;;;5090823;28;20030;-54
2023/06/24 05:17:04;;;;;;;10.30;5.55;;;17.50;99.90;;;;;;5072961;28;20210;-55
2023/06/24 05:19:30;;;;;;;9.05;5.15;;;17.50;99.90;;;;;;5090738;28;20054;-55
2023/06/24 05:21:56;;;;;;;8.82;5.55;;;17.60;99.90;;;;;;5090588;28;20119;-55
2023/06/24 05:24:21;;;;;;;10.80;5.82;;;17.60;99.90;;;;;;5090608;28;20074;-53
2023/06/24 05:26:49;;;;;;;10.60;5.97;;;17.70;99.90;;;;;;5090607;28;20473;-53
2023/06/24 05:29:15;;;;;;;11.00;5.57;;;17.80;99.90;;;;;;5090546;28;20032;-55
2023/06/24 05:31:41;;;;;;;10.07;6.05;;;17.90;99.90;;;;;;5090431;28;20089;-55
2023/06/24 05:34:07;;;;;;;10.45;5.80;;;18.00;99.90;;;;;;5091008;28;20050;-51
2023/06/24 05:36:33;;;;;;;11.57;6.57;;;18.20;99.90;;;;;;5090598;28;20434;-55
2023/06/24 05:38:59;;;;;;;9.75;5.57;;;18.30;99.90;;;;;;5092371;28;20107;-53
2023/06/24 05:41:24;;;;;;;11.25;6.20;;;18.40;99.90;;;;;;5094487;28;20518;-54
2023/06/24 05:44:04;;;;;;;9.80;6.18;;;18.60;99.90;;;;;;5094966;28;20104;-55
2023/06/24 05:46:30;;;;;;;9.45;5.53;;;18.70;99.90;;;;;;5094628;28;20028;-55
2023/06/24 05:48:56;;;;;;;10.13;6.22;;;18.90;99.90;;;;;;5076222;28;20051;-55
2023/06/24 05:51:21;;;;;;;11.68;7.15;;;19.00;99.90;;;;;;5076010;28;20032;-55
2023/06/24 05:53:47;;;;;;;16.25;9.23;;;19.20;99.90;;;;;;5094544;28;20024;-54
2023/06/24 05:56:12;;;;;;;16.92;10.73;;;19.40;99.90;;;;;;5094404;28;20498;-55
2023/06/24 05:58:38;;;;;;;13.27;7.50;;;19.60;99.90;;;;;;5076039;28;20523;-55
2023/06/24 06:01:04;;;;;;;13.05;7.68;;;19.80;99.90;;;;;;5094108;28;20472;-55
2023/06/24 06:03:30;;;;;;;16.63;8.98;;;19.80;99.90;;;;;;5094131;28;20034;-55
2023/06/24 06:05:56;;;;;;;14.95;8.02;;;19.90;99.90;;;;;;5093998;28;20024;-54
2023/06/24 06:08:22;;;;;;;11.43;6.63;;;20.00;99.90;;;;;;5093905;28;20034;-55
2023/06/24 06:10:47;;;;;;;14.20;7.90;;;20.00;99.90;;;;;;5093751;28;20377;-52
2023/06/24 06:13:13;;;;;;;12.35;7.82;;;20.00;99.90;;;;;;5094090;28;20028;-53
2023/06/24 06:15:38;;;;;;;15.40;8.32;;;20.20;99.90;;;;;;5093886;28;20081;-54
2023/06/24 06:18:04;;;;;;;20.50;10.77;;;20.20;99.90;;;;;;5075634;28;20023;-54
2023/06/24 06:20:30;;;;;;;19.67;12.13;;;20.40;99.90;;;;;;5093939;28;20485;-51
2023/06/24 06:22:55;;;;;;;16.52;9.00;;;20.50;99.90;;;;;;5093904;28;20109;-52
2023/06/24 06:25:21;;;;;;;13.48;8.60;;;20.50;99.90;;;;;;5093696;28;20078;-55
2023/06/24 06:27:47;;;;;;;19.17;10.85;;;20.50;99.90;;;;;;5093523;28;20101;-53
2023/06/24 06:30:13;;;;;;;13.98;8.35;;;20.50;99.90;;;;;;5093591;28;20024;-56
2023/06/24 06:32:39;;;;;;;21.20;11.60;;;20.50;99.90;;;;;;5093496;28;20090;-53
2023/06/24 06:35:05;;;;;;;14.63;9.52;;;20.50;99.90;;;;;;5075424;28;20469;-54
2023/06/24 06:37:31;;;;;;;13.88;8.30;;;20.50;99.90;;;;;;5093458;28;20028;-54
2023/06/24 06:39:56;;;;;;;14.60;8.85;;;20.60;99.90;;;;;;5093440;28;20039;-54
2023/06/24 06:42:22;;;;;;;12.18;7.85;;;20.60;99.90;;;;;;5093137;28;20032;-54
2023/06/24 06:44:47;;;;;;;12.82;8.00;;;20.70;99.90;;;;;;5093843;28;20388;-54
2023/06/24 06:47:13;;;;;;;12.50;8.45;;;20.70;99.90;;;;;;5093229;28;20016;-53
2023/06/24 06:49:39;;;;;;;19.88;12.25;;;20.60;99.90;;;;;;5092705;28;20499;-53
2023/06/24 06:52:05;;;;;;;15.95;10.75;;;20.70;99.90;;;;;;5092892;28;20040;-55
2023/06/24 06:54:31;;;;;;;14.88;9.75;;;20.70;99.90;;;;;;5093197;28;20058;-54
2023/06/24 06:57:03;;;;;;;16.90;10.65;;;20.70;99.90;;;;;;5093411;28;20032;-50
2023/06/24 06:59:32;;;;;;;17.30;11.35;;;20.80;99.90;;;;;;5093018;28;20103;-52
2023/06/24 07:01:58;;;;;;;15.43;9.57;;;20.90;99.90;;;;;;5092819;28;20062;-52
2023/06/24 07:04:23;;;;;;;17.23;9.63;;;21.00;99.90;;;;;;5093198;28;20059;-49
2023/06/24 07:06:49;;;;;;;15.13;9.70;;;21.10;99.90;;;;;;5092804;28;20028;-52
2023/06/24 07:09:15;;;;;;;17.02;10.07;;;21.20;99.90;;;;;;5092914;28;20074;-54
2023/06/24 07:11:43;;;;;;;16.63;10.23;;;21.20;99.90;;;;;;5092656;28;20119;-54
2023/06/24 07:14:09;;;;;;;22.30;11.63;;;21.40;99.90;;;;;;5092872;28;20024;-54
2023/06/24 07:16:35;;;;;;;16.50;9.85;;;21.50;99.90;;;;;;5092843;28;20038;-53
2023/06/24 07:19:01;;;;;;;21.58;13.10;;;21.70;99.90;;;;;;5092916;28;20028;-53
2023/06/24 07:21:26;;;;;;;20.98;12.35;;;22.00;99.90;;;;;;5092414;28;20026;-54
2023/06/24 07:23:52;;;;;;;17.77;11.23;;;22.10;99.90;;;;;;5092627;28;20406;-52
2023/06/24 07:26:18;;;;;;;17.55;11.23;;;22.20;99.90;;;;;;5092644;28;20043;-54
2023/06/24 07:28:43;;;;;;;16.33;10.05;;;22.30;99.90;;;;;;5092256;28;20027;-53
2023/06/24 07:31:09;;;;;;;17.80;10.88;;;22.40;99.90;;;;;;5092451;28;20560;-52
2023/06/24 07:33:34;;;;;;;14.65;9.23;;;22.50;99.90;;;;;;5092472;28;20024;-53
2023/06/24 07:36:00;;;;;;;17.35;11.15;;;22.60;99.90;;;;;;5092461;28;20107;-53
2023/06/24 07:38:28;;;;;;;16.27;10.43;;;22.60;99.90;;;;;;5092329;28;20054;-52
2023/06/24 07:40:54;;;;;;;18.00;9.87;;;22.40;99.90;;;;;;5092321;28;20028;-52
2023/06/24 07:43:19;;;;;;;14.63;9.60;;;22.30;99.90;;;;;;5092287;28;20118;-54
2023/06/24 07:45:45;;;;;;;18.15;9.73;;;22.30;99.90;;;;;;5092253;28;20032;-52
2023/06/24 07:48:11;;;;;;;18.63;10.65;;;22.60;99.90;;;;;;5092185;28;20070;-52
2023/06/24 07:50:37;;;;;;;19.42;11.77;;;22.70;99.90;;;;;;5091965;28;20046;-50
2023/06/24 07:53:03;;;;;;;14.85;9.23;;;22.70;99.90;;;;;;5092366;28;20054;-48
2023/06/24 07:55:28;;;;;;;20.05;12.27;;;22.70;99.90;;;;;;5092258;28;20395;-52
2023/06/24 07:57:54;;;;;;;16.42;10.27;;;22.70;99.90;;;;;;5092059;28;20028;-52
2023/06/24 08:00:20;;;;;;;16.33;8.85;;;22.70;99.90;;;;;;5091484;28;20107;-51
2023/06/24 08:02:45;;;;;;;9.10;5.82;;;22.70;99.90;;;;;;5091637;28;20028;-53
2023/06/24 08:05:11;;;;;;;11.80;7.45;;;22.80;99.90;;;;;;5091885;28;20042;-50
2023/06/24 08:07:37;;;;;;;11.85;7.05;;;22.80;99.90;;;;;;5092032;28;20039;-50
2023/06/24 08:10:04;;;;;;;9.57;6.38;;;22.90;99.90;;;;;;5091702;28;20457;-51
2023/06/24 08:12:31;;;;;;;12.20;7.25;;;23.00;99.90;;;;;;5091820;28;20100;-52
2023/06/24 08:14:56;;;;;;;10.93;5.60;;;23.10;99.90;;;;;;5073638;28;20035;-54
2023/06/24 08:17:22;;;;;;;9.70;5.93;;;23.20;99.90;;;;;;5091910;28;20401;-52
2023/06/24 08:19:48;;;;;;;10.43;5.97;;;23.30;99.90;;;;;;5091515;28;20115;-49
2023/06/24 08:22:14;;;;;;;8.10;5.03;;;23.40;99.90;;;;;;5091797;28;20096;-51
2023/06/24 08:24:40;;;;;;;7.47;5.30;;;23.50;99.90;;;;;;5092102;28;20496;-49
2023/06/24 08:27:06;;;;;;;11.77;6.70;;;23.60;99.90;;;;;;5092286;28;20385;-50
2023/06/24 08:29:31;;;;;;;11.27;7.07;;;23.70;99.90;;;;;;5092262;28;20028;-48
2023/06/24 08:31:57;;;;;;;11.32;6.55;;;23.70;99.90;;;;;;5092675;28;20023;-51
2023/06/24 08:34:22;;;;;;;11.82;6.78;;;23.70;99.90;;;;;;5092917;28;20093;-51
2023/06/24 08:36:48;;;;;;;10.50;6.25;;;23.70;99.90;;;;;;5092373;28;20034;-48
2023/06/24 08:39:14;;;;;;;10.52;4.70;;;23.80;99.90;;;;;;5092270;28;20032;-48
2023/06/24 08:41:39;;;;;;;9.40;5.57;;;23.80;99.90;;;;;;5091295;28;20050;-53
2023/06/24 08:44:05;;;;;;;9.45;4.72;;;24.00;99.50;;;;;;5091275;28;20085;-53
2023/06/24 08:46:33;;;;;;;8.15;4.90;;;24.10;99.40;;;;;;5091179;28;20027;-53
2023/06/24 08:49:23;;;;;;;8.95;5.25;;;24.00;98.80;;;;;;5091073;28;20028;-54
2023/06/24 08:52:12;;;;;;;12.57;6.43;;;24.10;99.90;;;;;;5090971;28;20107;-55
2023/06/24 08:54:40;;;;;;;8.52;5.45;;;24.30;98.30;;;;;;5091073;28;20038;-54
2023/06/24 08:57:07;;;;;;;10.63;5.95;;;24.30;99.70;;;;;;5091004;28;20024;-54
2023/06/24 08:59:36;;;;;;;9.25;4.30;;;24.40;97.90;;;;;;5091227;28;20098;-54
2023/06/24 09:02:02;;;;;;;10.55;5.90;;;24.30;98.00;;;;;;5072808;28;20028;-54
2023/06/24 09:04:28;;;;;;;10.43;6.15;;;24.50;96.70;;;;;;5090824;28;20534;-54
2023/06/24 09:06:53;;;;;;;8.70;4.20;;;24.50;96.50;;;;;;5090828;28;20112;-54
2023/06/24 09:09:20;;;;;;;7.35;3.95;;;24.60;96.20;;;;;;5090780;28;20032;-54
2023/06/24 09:12:13;;;;;;;7.15;3.15;;;24.70;95.40;;;;;;5090417;28;20035;-52
2023/06/24 09:14:40;;;;;;;9.73;5.30;;;24.80;95.00;;;;;;5087780;28;20036;-53
2023/06/24 09:17:06;;;;;;;8.93;4.45;;;24.90;94.40;;;;;;5072735;28;20115;-50
2023/06/24 09:19:36;;;;;;;7.85;4.32;;;24.80;94.30;;;;;;5072665;28;20445;-53
2023/06/24 09:22:08;;;;;;;8.07;4.30;;;24.90;94.70;;;;;;5090466;28;20032;-52
2023/06/24 09:24:35;;;;;;;7.75;3.70;;;25.00;94.20;;;;;;5091035;28;20032;-49
2023/06/24 09:27:01;;;;;;;5.95;3.35;;;25.10;93.40;;;;;;5090860;28;20272;-49
2023/06/24 09:29:28;;;;;;;5.15;2.83;;;25.20;93.20;;;;;;5090556;28;20163;-50
2023/06/24 09:31:56;;;;;;;7.93;4.50;;;25.30;92.80;;;;;;5072237;28;20055;-50
2023/06/24 09:34:23;;;;;;;5.85;3.25;;;25.30;93.30;;;;;;5090545;28;20032;-51
2023/06/24 09:36:58;;;;;;;7.43;3.97;;;25.30;91.40;;;;;;5090575;28;20024;-51
2023/06/24 09:39:29;;;;;;;7.57;4.45;;;25.30;91.00;;;;;;5090446;28;20036;-50
2023/06/24 09:41:55;;;;;;;6.30;3.67;;;25.40;92.30;;;;;;5072183;28;20032;-50
2023/06/24 09:44:21;;;;;;;8.07;4.35;;;25.40;91.70;;;;;;5090479;28;20142;-49
2023/06/24 09:46:47;;;;;;;6.65;3.45;;;25.50;91.90;;;;;;5090272;28;20119;-54
2023/06/24 09:49:13;;;;;;;7.50;3.85;;;25.60;88.70;;;;;;5090310;28;20024;-52
2023/06/24 09:51:42;;;;;;;10.02;6.05;;;25.60;90.20;;;;;;5090458;28;20027;-50
2023/06/24 09:54:09;;;;;;;7.00;4.30;;;25.60;87.80;;;;;;5090478;28;20028;-50
2023/06/24 09:56:37;;;;;;;6.45;3.45;;;25.70;85.40;;;;;;5090294;28;20035;-51
2023/06/24 09:59:06;;;;;;;4.27;2.50;;;25.80;83.00;;;;;;5090279;28;20110;-50
2023/06/24 10:01:43;;;;;;;7.25;2.75;;;25.70;82.40;;;;;;5090066;28;20096;-51
2023/06/24 10:04:15;;;;;;;5.50;3.33;;;25.70;84.00;;;;;;5090253;28;20051;-52
2023/06/24 10:06:40;;;;;;;8.55;4.63;;;25.90;85.20;;;;;;5090242;28;20472;-50
2023/06/24 10:09:06;;;;;;;7.88;4.03;;;26.00;85.70;;;;;;5090639;28;20024;-53
2023/06/24 10:11:32;;;;;;;6.72;3.50;;;26.00;84.80;;;;;;5090074;28;20070;-51
2023/06/24 10:13:58;;;;;;;5.43;2.70;;;26.10;78.40;;;;;;5090207;28;20028;-53
2023/06/24 10:16:23;;;;;;;6.22;3.50;;;26.10;76.30;;;;;;5090149;28;20052;-54
2023/06/24 10:18:49;;;;;;;6.22;3.63;;;26.10;78.00;;;;;;5071903;28;20433;-51
2023/06/24 10:21:16;;;;;;;7.60;3.95;;;26.00;80.90;;;;;;5090053;28;20396;-55
2023/06/24 10:23:44;;;;;;;7.88;3.40;;;26.10;81.70;;;;;;5090072;28;20028;-55
2023/06/24 10:26:21;;;;;;;5.05;2.80;;;26.10;81.80;;;;;;5093726;28;20043;-50
2023/06/24 10:29:17;;;;;;;5.90;3.40;;;26.10;81.90;;;;;;5093669;28;20391;-53
2023/06/24 10:31:54;;;;;;;4.80;2.35;;;26.10;79.30;;;;;;5091795;28;20051;-53
2023/06/24 10:34:22;;;;;;;4.65;2.30;;;26.10;78.40;;;;;;5075290;28;20036;-51
2023/06/24 10:37:02;;;;;;;3.97;2.03;;;26.30;73.60;;;;;;5075575;28;20031;-55
2023/06/24 10:39:51;;;;;;;5.57;3.08;;;26.30;73.90;;;;;;5093422;28;20028;-54
2023/06/24 10:42:33;;;;;;;6.40;3.65;;;26.50;77.90;;;;;;5093754;28;20038;-52
2023/06/24 10:45:12;;;;;;;9.82;3.53;;;26.70;78.70;;;;;;5093590;28;20032;-54
2023/06/24 10:47:39;;;;;;;4.68;2.67;;;26.80;78.00;;;;;;5093519;28;20024;-54
2023/06/24 10:50:07;;;;;;;6.77;3.00;;;26.70;76.90;;;;;;5093025;28;20028;-53
2023/06/24 10:52:37;;;;;;;5.50;2.88;;;26.80;77.30;;;;;;5093435;28;20357;-51
2023/06/24 10:55:03;;;;;;;5.40;2.78;;;26.80;72.50;;;;;;5093668;28;20377;-54
2023/06/24 10:57:29;;;;;;;4.97;2.45;;;26.80;72.70;;;;;;5093299;28;20389;-50
2023/06/24 10:59:57;;;;;;;4.65;2.50;;;26.80;72.10;;;;;;5093046;28;20038;-50
2023/06/24 11:02:27;;;;;;;6.53;2.95;;;27.00;70.80;;;;;;5093245;28;20038;-52
2023/06/24 11:04:55;;;;;;;4.40;2.55;;;27.00;71.70;;;;;;5092957;28;20066;-54
2023/06/24 11:07:22;;;;;;;5.32;2.88;;;27.10;74.10;;;;;;5093013;28;20024;-54
2023/06/24 11:10:01;;;;;;;4.57;2.58;;;27.00;73.00;;;;;;5092825;28;20035;-50
2023/06/24 11:12:30;;;;;;;5.10;2.40;;;26.70;74.50;;;;;;5074975;28;20028;-52
2023/06/24 11:15:04;;;;;;;4.50;2.40;;;26.80;74.30;;;;;;5074905;28;20114;-51
2023/06/24 11:17:30;;;;;;;5.53;2.63;;;26.80;71.60;;;;;;5092966;28;20024;-53
2023/06/24 11:19:57;;;;;;;4.22;2.10;;;26.80;72.50;;;;;;5092700;28;20581;-52
2023/06/24 11:22:24;;;;;;;4.88;2.60;;;26.90;72.30;;;;;;5092720;28;20046;-54
2023/06/24 11:24:50;;;;;;;4.90;2.30;;;26.90;71.80;;;;;;5092673;28;20035;-52
2023/06/24 11:27:16;;;;;;;5.15;2.40;;;27.00;71.00;;;;;;5092663;28;20051;-54
2023/06/24 11:29:41;;;;;;;5.88;2.63;;;27.00;72.40;;;;;;5092665;28;20476;-52
2023/06/24 11:32:08;;;;;;;5.13;2.97;;;27.10;70.40;;;;;;5092638;28;20492;-55
2023/06/24 11:34:38;;;;;;;4.15;2.30;;;27.20;69.50;;;;;;5092686;28;20024;-52
2023/06/24 11:37:14;;;;;;;5.28;2.85;;;27.30;69.80;;;;;;5092708;28;20038;-52
2023/06/24 11:39:40;;;;;;;4.95;2.53;;;27.20;69.70;;;;;;5092671;28;20039;-51
2023/06/24 11:42:10;;;;;;;5.13;2.33;;;27.20;68.60;;;;;;5092444;28;20028;-54
2023/06/24 11:44:42;;;;;;;6.97;3.72;;;27.10;68.90;;;;;;5092302;28;20488;-53
2023/06/24 11:47:09;;;;;;;5.28;3.25;;;27.00;72.00;;;;;;5092467;28;20028;-55
2023/06/24 11:49:57;;;;;;;4.22;2.67;;;26.90;70.80;;;;;;5092219;28;20039;-53
2023/06/24 11:52:38;;;;;;;5.38;2.60;;;26.90;68.70;;;;;;5092298;28;20530;-53
2023/06/24 11:55:03;;;;;;;5.05;2.78;;;27.00;70.00;;;;;;5092229;28;20032;-55
2023/06/24 11:57:48;;;;;;;6.18;2.92;;;27.20;68.40;;;;;;5092695;28;20028;-55
2023/06/24 12:00:14;;;;;;;4.22;2.72;;;27.20;68.70;;;;;;5091884;28;20043;-55
2023/06/24 12:02:40;;;;;;;6.72;2.40;;;27.20;68.50;;;;;;5091950;28;20028;-55
2023/06/24 12:05:06;;;;;;;3.53;2.05;;;27.20;66.60;;;;;;5091857;28;20039;-53
2023/06/24 12:07:31;;;;;;;4.32;2.80;;;27.10;67.10;;;;;;5091954;28;20081;-54
2023/06/24 12:09:57;;;;;;;4.82;2.72;;;27.10;69.00;;;;;;5091664;28;20035;-54
2023/06/24 12:12:22;;;;;;;2.83;1.85;;;27.20;71.10;;;;;;5091722;28;20159;-52
2023/06/24 12:14:48;;;;;;;4.07;2.60;;;27.30;67.20;;;;;;5091822;28;20032;-52
2023/06/24 12:17:14;;;;;;;5.43;2.75;;;27.20;69.60;;;;;;5091734;28;20439;-51
2023/06/24 12:19:39;;;;;;;4.53;2.85;;;27.40;69.70;;;;;;5091494;28;20035;-53
2023/06/24 12:22:05;;;;;;;4.78;2.58;;;27.50;68.90;;;;;;5091437;28;20028;-53
2023/06/24 12:24:30;;;;;;;4.68;2.60;;;27.50;67.00;;;;;;5091489;28;20028;-51
2023/06/24 12:26:56;;;;;;;4.10;2.28;;;27.60;66.90;;;;;;5091356;28;20036;-52
2023/06/24 12:29:22;;;;;;;5.05;2.38;;;27.60;65.70;;;;;;5091363;28;20382;-54
2023/06/24 12:31:47;;;;;;;5.85;3.08;;;27.70;67.90;;;;;;5091342;28;20085;-55
2023/06/24 12:34:13;;;;;;;4.38;2.53;;;27.80;67.80;;;;;;5091344;28;20043;-53
2023/06/24 12:36:38;;;;;;;2.97;1.90;;;27.80;66.60;;;;;;5091460;28;20031;-54
2023/06/24 12:39:04;;;;;;;6.15;3.80;;;27.70;66.90;;;;;;5091251;28;20031;-54
2023/06/24 12:41:29;;;;;;;5.05;3.00;;;27.70;65.40;;;;;;5091067;28;20060;-55
2023/06/24 12:43:55;;;;;;;4.72;1.85;;;27.80;65.80;;;;;;5091474;28;20080;-54
2023/06/24 12:46:21;;;;;;;3.80;2.05;;;27.70;64.40;;;;;;5091132;28;20354;-50